createdAt,value
2022-12-11T00:02:18.394Z,99949.16
2022-12-11T00:04:48.061Z,99946.56
2022-12-11T00:07:20.280Z,99952.66
2022-12-11T00:09:49.875Z,99943.94
2022-12-11T00:12:19.980Z,99953.47
2022-12-11T00:14:49.604Z,99948.25
2022-12-11T00:17:19.168Z,99950.00
2022-12-11T00:19:48.753Z,99951.78
2022-12-11T00:22:20.889Z,99962.19
2022-12-11T00:24:50.726Z,99955.22
2022-12-11T00:27:20.267Z,99950.88
2022-12-11T00:29:50.363Z,99951.78
2022-12-11T00:32:19.963Z,99961.31
2022-12-11T00:34:49.577Z,99957.00
2022-12-11T00:37:21.744Z,99955.22
2022-12-11T00:39:51.503Z,99948.28
2022-12-11T00:42:21.067Z,99950.03
2022-12-11T00:44:50.967Z,99953.53
2022-12-11T00:47:20.546Z,99946.56
2022-12-11T00:49:50.399Z,99956.16
2022-12-11T00:52:22.697Z,99950.09
2022-12-11T00:54:52.275Z,99946.59
2022-12-11T00:57:21.858Z,99950.06
2022-12-11T00:59:51.401Z,99936.19
2022-12-11T01:02:21.038Z,99942.28
2022-12-11T01:04:50.593Z,99946.63
2022-12-11T01:07:22.747Z,99937.97
2022-12-11T01:10:04.749Z,99940.56
2022-12-11T01:12:34.364Z,99935.34
2022-12-11T01:15:04.197Z,99931.81
2022-12-11T01:17:33.836Z,99930.94
2022-12-11T01:20:04.293Z,99932.66
2022-12-11T01:22:36.481Z,99939.59
2022-12-11T01:25:06.395Z,99937.88
2022-12-11T01:27:36.098Z,99937.88
2022-12-11T01:30:07.473Z,99946.56
2022-12-11T01:32:37.615Z,99943.09
2022-12-11T01:35:08.359Z,99947.44
2022-12-11T01:37:40.776Z,99951.78
2022-12-11T01:40:12.232Z,99948.25
2022-12-11T01:42:41.799Z,99950.00
2022-12-11T01:45:36.529Z,99947.38
2022-12-11T01:48:09.515Z,99935.19
2022-12-11T01:50:42.537Z,99937.81
2022-12-11T01:53:18.220Z,99933.47
2022-12-11T01:55:49.341Z,99928.25
2022-12-11T01:58:19.351Z,99933.47
2022-12-11T02:00:49.192Z,99923.91
2022-12-11T02:03:19.364Z,99930.00
2022-12-11T02:05:48.977Z,99924.78
2022-12-11T02:08:21.465Z,99921.31
2022-12-11T02:10:59.275Z,99916.97
2022-12-11T02:13:34.273Z,99921.28
2022-12-11T02:16:10.799Z,99935.19
2022-12-11T02:18:47.050Z,99924.75
2022-12-11T02:21:21.939Z,99921.25
2022-12-11T02:24:06.258Z,99917.81
2022-12-11T02:26:58.059Z,99920.44
2022-12-11T02:29:36.406Z,99919.56
2022-12-11T02:32:08.858Z,99923.91
2022-12-11T02:34:42.920Z,99920.47
2022-12-11T02:37:17.151Z,99915.25
2022-12-11T02:39:46.464Z,99914.41
2022-12-11T02:42:17.055Z,99910.94
2022-12-11T02:44:49.631Z,99908.28
2022-12-11T02:47:20.310Z,99906.53
2022-12-11T02:49:52.523Z,99910.91
2022-12-11T02:52:24.575Z,99907.44
2022-12-11T02:54:55.374Z,99903.97
2022-12-11T02:57:27.041Z,99906.56
2022-12-11T02:59:59.191Z,99908.31
2022-12-11T03:02:28.871Z,99906.59
2022-12-11T03:04:59.491Z,99902.25
2022-12-11T03:07:31.986Z,99904.84
2022-12-11T03:10:01.651Z,99894.47
2022-12-11T03:12:33.307Z,99897.94
2022-12-11T03:15:10.078Z,99902.31
2022-12-11T03:17:45.989Z,99901.47
2022-12-11T03:20:21.443Z,99901.47
2022-12-11T03:22:54.428Z,99898.84
2022-12-11T03:25:25.923Z,99898.84
2022-12-11T03:28:01.200Z,99906.69
2022-12-11T03:30:34.194Z,99906.69
2022-12-11T03:33:06.963Z,99902.34
2022-12-11T03:35:38.782Z,99906.69
2022-12-11T03:38:12.806Z,99903.22
2022-12-11T03:40:43.412Z,99910.16
2022-12-11T03:43:14.339Z,99911.88
2022-12-11T03:45:47.837Z,99917.09
2022-12-11T03:48:18.219Z,99913.63
2022-12-11T03:50:49.092Z,99918.00
2022-12-11T03:53:19.474Z,99912.81
2022-12-11T03:55:49.267Z,99911.06
2022-12-11T03:58:18.811Z,99904.97
2022-12-11T04:00:51.047Z,99898.84
2022-12-11T04:03:20.655Z,99896.25
2022-12-11T04:05:51.577Z,99900.56
2022-12-11T04:08:23.388Z,99898.78
2022-12-11T04:11:13.860Z,99905.75
2022-12-11T04:13:44.399Z,99897.00
2022-12-11T04:16:14.062Z,99896.16
2022-12-11T04:18:56.108Z,99892.72
2022-12-11T04:21:39.817Z,99890.13
2022-12-11T04:24:18.876Z,99899.66
2022-12-11T04:26:49.655Z,99890.09
2022-12-11T04:29:19.199Z,99893.56
2022-12-11T04:31:51.346Z,99894.44
2022-12-11T04:34:20.898Z,99888.34
2022-12-11T04:36:50.507Z,99885.81
2022-12-11T04:39:20.177Z,99880.63
2022-12-11T04:41:49.751Z,99882.41
2022-12-11T04:44:19.304Z,99877.19
2022-12-11T04:46:51.472Z,99880.63
2022-12-11T04:49:21.070Z,99878.84
2022-12-11T04:51:50.617Z,99873.59
2022-12-11T04:54:20.185Z,99878.75
2022-12-11T04:56:49.790Z,99873.50
2022-12-11T04:59:19.380Z,99876.91
2022-12-11T05:01:51.609Z,99869.97
2022-12-11T05:04:21.235Z,99871.69
2022-12-11T05:06:52.054Z,99871.72
2022-12-11T05:09:21.701Z,99869.13
2022-12-11T05:11:51.757Z,99869.13
2022-12-11T05:14:21.553Z,99864.81
2022-12-11T05:16:53.691Z,99876.03
2022-12-11T05:19:23.244Z,99878.66
2022-12-11T05:21:52.856Z,99873.38
2022-12-11T05:24:22.501Z,99864.63
2022-12-11T05:26:52.020Z,99868.97
2022-12-11T05:29:21.587Z,99867.25
2022-12-11T05:31:53.700Z,99872.53
2022-12-11T05:34:23.276Z,99869.03
2022-12-11T05:36:52.816Z,99864.66
2022-12-11T05:39:22.523Z,99866.38
2022-12-11T05:41:52.039Z,99866.34
2022-12-11T05:44:21.602Z,99868.03
2022-12-11T05:46:53.770Z,99861.00
2022-12-11T05:49:30.517Z,99847.91
2022-12-11T05:52:00.507Z,99849.59
2022-12-11T05:54:30.100Z,99846.06
2022-12-11T05:56:59.627Z,99850.38
2022-12-11T05:59:29.182Z,99844.22
2022-12-11T06:02:01.564Z,99855.50
2022-12-11T06:04:31.232Z,99853.72
2022-12-11T06:07:00.811Z,99854.56
2022-12-11T06:09:30.376Z,99857.16
2022-12-11T06:11:59.932Z,99854.47
2022-12-11T06:14:29.530Z,99854.44
2022-12-11T06:17:01.675Z,99864.81
2022-12-11T06:19:36.590Z,99855.22
2022-12-11T06:22:06.627Z,99853.50
2022-12-11T06:24:36.263Z,99855.22
2022-12-11T06:27:05.787Z,99856.97
2022-12-11T06:29:35.768Z,99854.38
2022-12-11T06:32:08.113Z,99851.75
2022-12-11T06:34:37.685Z,99849.09
2022-12-11T06:37:07.268Z,99853.41
2022-12-11T06:39:36.846Z,99853.41
2022-12-11T06:42:06.720Z,99849.03
2022-12-11T06:44:36.278Z,99846.44
2022-12-11T06:47:08.947Z,99855.97
2022-12-11T06:49:38.506Z,99854.19
2022-12-11T06:52:11.518Z,99852.41
2022-12-11T06:54:43.256Z,99855.00
2022-12-11T06:57:12.925Z,99860.16
2022-12-11T06:59:42.596Z,99854.09
2022-12-11T07:02:16.296Z,99855.91
2022-12-11T07:04:49.272Z,99860.31
2022-12-11T07:07:21.453Z,99862.06
2022-12-11T07:09:51.045Z,99863.78
2022-12-11T07:12:21.151Z,99863.81
2022-12-11T07:14:50.693Z,99871.69
2022-12-11T07:17:22.806Z,99869.13
2022-12-11T07:19:52.389Z,99866.53
2022-12-11T07:22:21.930Z,99874.38
2022-12-11T07:24:51.471Z,99869.19
2022-12-11T07:27:21.028Z,99873.66
2022-12-11T07:29:50.655Z,99864.22
2022-12-11T07:32:22.848Z,99867.78
2022-12-11T07:34:52.731Z,99862.53
2022-12-11T07:37:22.264Z,99867.72
2022-12-11T07:39:51.793Z,99868.59
2022-12-11T07:42:21.330Z,99878.16
2022-12-11T07:44:51.307Z,99879.06
2022-12-11T07:47:23.461Z,99875.56
2022-12-11T07:49:53.041Z,99886.91
2022-12-11T07:52:22.805Z,99880.78
2022-12-11T07:54:52.440Z,99881.66
2022-12-11T07:57:22.016Z,99880.75
2022-12-11T07:59:51.590Z,99881.59
2022-12-11T08:02:23.816Z,99870.19
2022-12-11T08:04:53.427Z,99871.84
2022-12-11T08:07:22.938Z,99877.91
2022-12-11T08:09:52.508Z,99867.41
2022-12-11T08:12:22.307Z,99871.75
2022-12-11T08:14:51.891Z,99871.69
2022-12-11T08:17:29.105Z,99868.13
2022-12-11T08:19:59.738Z,99867.19
2022-12-11T08:22:29.407Z,99868.06
2022-12-11T08:24:58.939Z,99864.63
2022-12-11T08:27:28.452Z,99867.28
2022-12-11T08:29:58.008Z,99872.53
2022-12-11T08:32:30.107Z,99863.84
2022-12-11T08:34:59.657Z,99874.22
2022-12-11T08:37:29.647Z,99869.00
2022-12-11T08:39:59.202Z,99870.66
2022-12-11T08:42:28.826Z,99873.25
2022-12-11T08:44:58.373Z,99879.25
2022-12-11T08:47:30.819Z,99879.22
2022-12-11T08:50:00.358Z,99872.25
2022-12-11T08:52:31.396Z,99872.22
2022-12-11T08:55:01.010Z,99867.00
2022-12-11T08:57:30.750Z,99865.25
2022-12-11T09:00:00.463Z,99869.56
2022-12-11T09:02:32.610Z,99864.25
2022-12-11T09:05:02.190Z,99859.84
2022-12-11T09:07:31.722Z,99858.06
2022-12-11T09:10:01.288Z,99857.16
2022-12-11T09:12:31.239Z,99855.38
2022-12-11T09:15:01.080Z,99854.44
2022-12-11T09:17:33.205Z,99853.47
2022-12-11T09:20:02.772Z,99859.50
2022-12-11T09:22:32.304Z,99868.22
2022-12-11T09:25:01.981Z,99864.69
2022-12-11T09:27:31.901Z,99865.59
2022-12-11T09:30:01.488Z,99872.59
2022-12-11T09:32:33.603Z,99870.03
2022-12-11T09:35:03.147Z,99866.53
2022-12-11T09:37:32.676Z,99869.16
2022-12-11T09:40:07.261Z,99866.53
2022-12-11T09:42:48.591Z,99869.16
2022-12-11T09:45:19.101Z,99871.78
2022-12-11T09:47:53.001Z,99864.81
2022-12-11T09:50:25.657Z,99861.31
2022-12-11T09:53:02.886Z,99856.97
2022-12-11T09:55:36.929Z,99857.78
2022-12-11T09:58:09.723Z,99857.75
2022-12-11T10:00:43.077Z,99855.97
2022-12-11T10:03:40.892Z,99856.81
2022-12-11T10:06:17.632Z,99859.41
2022-12-11T10:08:54.412Z,99854.19
2022-12-11T10:11:35.663Z,99857.69
2022-12-11T10:14:09.448Z,99849.84
2022-12-11T10:16:42.296Z,99860.34
2022-12-11T10:19:22.082Z,99855.13
2022-12-11T10:21:52.927Z,99851.66
2022-12-11T10:25:05.772Z,99850.84
2022-12-11T10:27:19.377Z,99846.44
2022-12-11T10:29:49.073Z,99842.94
2022-12-11T10:32:25.725Z,99840.28
2022-12-11T10:35:00.702Z,99843.75
2022-12-11T10:37:30.438Z,99827.13
2022-12-11T10:39:59.983Z,99823.63
2022-12-11T10:42:29.663Z,99819.22
2022-12-11T10:45:01.252Z,99821.69
2022-12-11T10:47:34.022Z,99813.75
2022-12-11T10:50:07.184Z,99817.16
2022-12-11T10:52:40.747Z,99810.94
2022-12-11T10:55:22.045Z,99803.94
2022-12-11T10:57:58.396Z,99803.88
2022-12-11T11:00:37.678Z,99806.44
2022-12-11T11:03:08.453Z,99806.38
2022-12-11T11:05:46.244Z,99799.34
2022-12-11T11:08:22.611Z,99802.78
2022-12-11T11:10:56.685Z,99801.03
2022-12-11T11:13:27.812Z,99798.31
2022-12-11T11:16:03.208Z,99805.22
2022-12-11T11:18:33.588Z,99801.72
2022-12-11T11:21:06.389Z,99797.50
2022-12-11T11:23:42.726Z,99797.59
2022-12-11T11:26:14.705Z,99789.78
2022-12-11T11:28:49.980Z,99788.00
2022-12-11T11:31:20.994Z,99787.09
2022-12-11T11:33:57.977Z,99790.56
2022-12-11T11:36:31.756Z,99787.97
2022-12-11T11:39:13.520Z,99784.50
2022-12-11T11:41:49.824Z,99791.50
2022-12-11T11:44:23.018Z,99780.16
2022-12-11T11:46:58.726Z,99784.53
2022-12-11T11:49:47.544Z,99782.75
2022-12-11T11:52:25.696Z,99776.66
2022-12-11T11:55:00.878Z,99774.00
2022-12-11T11:57:37.885Z,99761.69
2022-12-11T12:00:10.845Z,99763.22
2022-12-11T12:02:44.140Z,99765.66
2022-12-11T12:05:15.431Z,99767.22
2022-12-11T12:07:52.944Z,99764.53
2022-12-11T12:10:26.781Z,99764.47
2022-12-11T12:13:01.378Z,99765.28
2022-12-11T12:15:38.545Z,99768.78
2022-12-11T12:18:14.875Z,99763.59
2022-12-11T12:20:51.199Z,99761.03
2022-12-11T12:23:36.655Z,99757.63
2022-12-11T12:26:11.933Z,99757.72
2022-12-11T12:28:45.120Z,99756.03
2022-12-11T12:31:24.201Z,99758.75
2022-12-11T12:33:58.899Z,99751.13
2022-12-11T12:36:31.154Z,99752.03
2022-12-11T12:39:06.108Z,99738.97
2022-12-11T12:41:42.756Z,99741.63
2022-12-11T12:44:20.040Z,99745.16
2022-12-11T12:46:54.703Z,99743.50
2022-12-11T12:49:33.942Z,99741.81
2022-12-11T12:52:04.315Z,99743.66
2022-12-11T12:54:36.867Z,99751.53
2022-12-11T12:57:07.314Z,99752.44
2022-12-11T12:59:36.862Z,99748.09
2022-12-11T13:02:08.916Z,99748.94
2022-12-11T13:04:56.865Z,99737.56
2022-12-11T13:07:30.386Z,99737.63
2022-12-11T13:10:07.039Z,99744.78
2022-12-11T13:12:47.694Z,99733.66
2022-12-11T13:15:33.344Z,99734.66
2022-12-11T13:18:04.343Z,99737.34
2022-12-11T13:20:35.486Z,99739.09
2022-12-11T13:23:18.609Z,99739.06
2022-12-11T13:25:53.337Z,99735.59
2022-12-11T13:28:31.620Z,99735.72
2022-12-11T13:31:10.272Z,99732.41
2022-12-11T13:33:46.688Z,99729.03
2022-12-11T13:36:28.092Z,99747.31
2022-12-11T13:39:00.666Z,99733.31
2022-12-11T13:41:33.289Z,99741.94
2022-12-11T13:44:02.945Z,99737.47
2022-12-11T13:46:35.563Z,99740.91
2022-12-11T13:49:07.585Z,99743.47
2022-12-11T13:51:38.057Z,99740.84
2022-12-11T13:54:16.943Z,99742.50
2022-12-11T13:56:59.797Z,99745.91
2022-12-11T13:59:32.805Z,99739.81
2022-12-11T14:02:06.331Z,99741.56
2022-12-11T14:04:37.147Z,99751.13
2022-12-11T14:07:09.844Z,99747.66
2022-12-11T14:09:42.900Z,99754.59
2022-12-11T14:12:21.773Z,99750.22
2022-12-11T14:14:54.075Z,99749.38
2022-12-11T14:17:27.518Z,99745.91
2022-12-11T14:19:58.276Z,99755.59
2022-12-11T14:22:29.776Z,99758.25
2022-12-11T14:25:02.813Z,99753.97
2022-12-11T14:27:34.982Z,99757.53
2022-12-11T14:30:13.784Z,99761.03
2022-12-11T14:32:46.125Z,99761.09
2022-12-11T14:35:27.613Z,99761.09
2022-12-11T14:37:57.508Z,99766.41
2022-12-11T14:40:31.734Z,99767.31
2022-12-11T14:43:06.368Z,99776.09
2022-12-11T14:45:37.708Z,99774.41
2022-12-11T14:48:11.568Z,99770.91
2022-12-11T14:50:43.794Z,99778.72
2022-12-11T14:53:17.233Z,99777.00
2022-12-11T14:55:47.005Z,99777.94
2022-12-11T14:58:21.988Z,99775.34
2022-12-11T15:01:00.748Z,99769.28
2022-12-11T15:03:34.734Z,99775.38
2022-12-11T15:06:05.366Z,99778.91
2022-12-11T15:08:37.001Z,99779.81
2022-12-11T15:11:09.122Z,99780.81
2022-12-11T15:13:43.093Z,99774.78
2022-12-11T15:16:17.472Z,99778.28
2022-12-11T15:18:50.752Z,99780.00
2022-12-11T15:21:21.056Z,99790.41
2022-12-11T15:23:55.038Z,99780.00
2022-12-11T15:26:36.372Z,99784.34
2022-12-11T15:29:22.582Z,99788.69
2022-12-11T15:32:02.169Z,99790.47
2022-12-11T15:34:36.334Z,99783.47
2022-12-11T15:37:05.669Z,99785.22
2022-12-11T15:39:35.219Z,99779.13
2022-12-11T15:42:09.819Z,99787.78
2022-12-11T15:44:43.985Z,99779.91
2022-12-11T15:47:16.432Z,99785.09
2022-12-11T15:49:45.991Z,99785.09
2022-12-11T15:52:15.607Z,99789.53
2022-12-11T15:54:45.166Z,99791.25
2022-12-11T15:57:19.387Z,99790.38
2022-12-11T15:59:51.471Z,99788.63
2022-12-11T16:02:21.554Z,99792.13
2022-12-11T16:04:51.140Z,99797.34
2022-12-11T16:07:22.269Z,99798.19
2022-12-11T16:09:52.313Z,99801.69
2022-12-11T16:12:21.931Z,99806.06
2022-12-11T16:14:54.074Z,99799.09
2022-12-11T16:17:23.899Z,99803.44
2022-12-11T16:19:54.185Z,99805.19
2022-12-11T16:22:23.759Z,99794.78
2022-12-11T16:24:56.100Z,99802.66
2022-12-11T16:27:26.412Z,99794.88
2022-12-11T16:29:58.862Z,99791.44
2022-12-11T16:32:28.476Z,99793.16
2022-12-11T16:35:01.211Z,99792.28
2022-12-11T16:37:31.056Z,99791.41
2022-12-11T16:40:00.780Z,99788.81
2022-12-11T16:42:30.490Z,99789.66
2022-12-11T16:45:08.576Z,99784.44
2022-12-11T16:47:38.188Z,99786.22
2022-12-11T16:50:08.564Z,99790.63
2022-12-11T16:52:38.363Z,99791.47
2022-12-11T16:55:09.260Z,99789.72
2022-12-11T16:57:39.239Z,99784.47
2022-12-11T17:00:14.223Z,99795.75
2022-12-11T17:02:44.191Z,99792.25
2022-12-11T17:05:13.999Z,99784.47
2022-12-11T17:07:43.817Z,99783.66
2022-12-11T17:10:13.524Z,99775.03
2022-12-11T17:12:43.094Z,99784.66
2022-12-11T17:15:15.429Z,99788.13
2022-12-11T17:17:44.991Z,99789.84
2022-12-11T17:20:14.751Z,99783.78
2022-12-11T17:22:46.024Z,99791.63
2022-12-11T17:25:19.299Z,99789.03
2022-12-11T17:27:48.868Z,99783.91
2022-12-11T17:30:21.159Z,99784.84
2022-12-11T17:32:51.181Z,99784.03
2022-12-11T17:35:21.020Z,99782.31
2022-12-11T17:37:50.543Z,99786.72
2022-12-11T17:40:22.616Z,99789.34
2022-12-11T17:42:52.177Z,99783.25
2022-12-11T17:45:24.336Z,99778.94
2022-12-11T17:47:53.848Z,99781.56
2022-12-11T17:50:23.388Z,99781.53
2022-12-11T17:52:52.951Z,99781.50
2022-12-11T17:55:22.578Z,99773.63
2022-12-11T17:57:52.249Z,99784.84
2022-12-11T18:00:27.458Z,99779.59
2022-12-11T18:03:01.153Z,99776.09
2022-12-11T18:05:31.413Z,99780.47
2022-12-11T18:08:01.096Z,99777.03
2022-12-11T18:10:30.741Z,99778.81
2022-12-11T18:13:01.006Z,99778.84
2022-12-11T18:15:33.194Z,99771.13
2022-12-11T18:18:02.870Z,99768.56
2022-12-11T18:20:33.776Z,99782.53
2022-12-11T18:23:04.276Z,99779.09
2022-12-11T18:25:34.116Z,99780.81
2022-12-11T18:28:03.727Z,99776.47
2022-12-11T18:30:35.989Z,99781.66
2022-12-11T18:33:05.612Z,99784.19
2022-12-11T18:35:35.191Z,99779.88
2022-12-11T18:38:04.864Z,99785.97
2022-12-11T18:40:34.436Z,99789.41
2022-12-11T18:43:03.963Z,99788.47
2022-12-11T18:45:36.296Z,99783.25
2022-12-11T18:48:06.436Z,99786.66
2022-12-11T18:50:36.104Z,99788.38
2022-12-11T18:53:05.841Z,99782.25
2022-12-11T18:55:35.831Z,99785.69
2022-12-11T18:58:05.377Z,99776.97
2022-12-11T19:00:37.569Z,99789.13
2022-12-11T19:03:07.176Z,99787.38
2022-12-11T19:05:40.331Z,99792.56
2022-12-11T19:08:10.006Z,99786.44
2022-12-11T19:10:44.000Z,99788.16
2022-12-11T19:13:13.881Z,99783.81
2022-12-11T19:15:46.614Z,99783.00
2022-12-11T19:18:16.224Z,99783.03
2022-12-11T19:20:50.627Z,99784.84
2022-12-11T19:23:23.449Z,99785.78
2022-12-11T19:25:53.274Z,99791.94
2022-12-11T19:28:22.846Z,99792.78
2022-12-11T19:30:55.033Z,99791.91
2022-12-11T19:33:24.654Z,99790.16
2022-12-11T19:36:03.467Z,99791.91
2022-12-11T19:38:33.007Z,99792.75
2022-12-11T19:41:02.753Z,99786.66
2022-12-11T19:43:32.336Z,99784.97
2022-12-11T19:46:05.551Z,99793.69
2022-12-11T19:48:37.466Z,99791.94
2022-12-11T19:51:08.005Z,99795.47
2022-12-11T19:53:38.439Z,99797.19
2022-12-11T19:56:08.841Z,99798.06
2022-12-11T19:58:38.551Z,99795.47
2022-12-11T20:01:11.243Z,99794.63
2022-12-11T20:03:41.406Z,99791.16
2022-12-11T20:06:11.272Z,99791.16
2022-12-11T20:08:45.718Z,99795.50
2022-12-11T20:11:18.758Z,99788.50
2022-12-11T20:13:48.999Z,99786.78
2022-12-11T20:16:39.084Z,99796.25
2022-12-11T20:19:11.531Z,99784.94
2022-12-11T20:21:41.100Z,99789.31
2022-12-11T20:24:11.508Z,99785.88
2022-12-11T20:26:41.361Z,99778.97
2022-12-11T20:29:10.927Z,99785.06
2022-12-11T20:31:44.573Z,99781.59
2022-12-11T20:34:14.588Z,99788.59
2022-12-11T20:36:44.301Z,99781.69
2022-12-11T20:39:15.101Z,99773.91
2022-12-11T20:41:44.752Z,99776.53
2022-12-11T20:44:14.302Z,99773.09
2022-12-11T20:46:46.456Z,99778.38
2022-12-11T20:49:16.571Z,99777.56
2022-12-11T20:51:46.135Z,99776.72
2022-12-11T20:54:15.694Z,99771.53
2022-12-11T20:56:45.252Z,99764.63
2022-12-11T20:59:14.853Z,99763.81
2022-12-11T21:01:47.031Z,99759.50
2022-12-11T21:04:16.640Z,99761.28
2022-12-11T21:06:46.190Z,99764.75
2022-12-11T21:09:18.124Z,99764.78
2022-12-11T21:11:48.053Z,99765.66
2022-12-11T21:14:18.607Z,99777.81
2022-12-11T21:16:50.998Z,99776.09
2022-12-11T21:19:21.241Z,99777.81
2022-12-11T21:21:51.056Z,99781.25
2022-12-11T21:24:26.408Z,99777.78
2022-12-11T21:26:57.668Z,99783.81
2022-12-11T21:29:29.388Z,99786.41
2022-12-11T21:32:01.688Z,99775.97
2022-12-11T21:34:31.300Z,99779.44
2022-12-11T21:37:00.862Z,99777.66
2022-12-11T21:39:36.076Z,99774.22
2022-12-11T21:42:08.724Z,99776.81
2022-12-11T21:45:31.351Z,99775.97
2022-12-11T21:47:30.563Z,99769.91
2022-12-11T21:50:00.174Z,99772.56
2022-12-11T21:52:30.019Z,99771.69
2022-12-11T21:54:59.654Z,99775.16
2022-12-11T21:57:30.148Z,99779.50
2022-12-11T21:59:59.764Z,99783.81
2022-12-11T22:02:36.012Z,99788.09
2022-12-11T22:05:10.522Z,99790.63
2022-12-11T22:07:40.493Z,99793.22
2022-12-11T22:10:11.434Z,99792.34
2022-12-11T22:12:41.091Z,99797.59
2022-12-11T22:15:12.220Z,99797.59
2022-12-11T22:17:44.562Z,99801.06
2022-12-11T22:20:14.981Z,99805.41
2022-12-11T22:22:44.797Z,99802.75
2022-12-11T22:25:14.630Z,99802.75
2022-12-11T22:27:44.428Z,99801.03
2022-12-11T22:30:15.305Z,99795.88
2022-12-11T22:32:47.548Z,99802.00
2022-12-11T22:35:17.112Z,99804.63
2022-12-11T22:37:46.691Z,99807.28
2022-12-11T22:40:16.604Z,99807.31
2022-12-11T22:42:46.346Z,99805.59
2022-12-11T22:45:16.210Z,99804.84
2022-12-11T22:47:48.490Z,99803.97
2022-12-11T22:50:19.160Z,99809.19
2022-12-11T22:52:48.832Z,99814.41
2022-12-11T22:55:18.463Z,99814.34
2022-12-11T22:57:48.127Z,99806.50
2022-12-11T23:00:18.828Z,99809.91
2022-12-11T23:02:51.097Z,99805.53
2022-12-11T23:05:20.959Z,99813.31
2022-12-11T23:07:50.630Z,99811.56
2022-12-11T23:10:20.376Z,99813.31
2022-12-11T23:12:49.985Z,99814.19
2022-12-11T23:15:19.600Z,99813.25
2022-12-11T23:17:51.767Z,99815.88
2022-12-11T23:20:21.959Z,99818.44
2022-12-11T23:22:51.524Z,99809.78
2022-12-11T23:25:21.411Z,99819.41
2022-12-11T23:27:51.138Z,99819.47
2022-12-11T23:30:20.713Z,99819.50
2022-12-11T23:32:52.881Z,99817.75
2022-12-11T23:35:22.524Z,99817.72
2022-12-11T23:37:52.100Z,99814.28
2022-12-11T23:40:21.837Z,99826.47
2022-12-11T23:42:51.598Z,99823.91
2022-12-11T23:45:21.261Z,99825.69
2022-12-11T23:47:53.852Z,99821.31
2022-12-11T23:50:23.853Z,99822.16
2022-12-11T23:52:53.458Z,99823.00
2022-12-11T23:55:25.390Z,99821.25
2022-12-11T23:57:55.007Z,99828.19
